Four Corners, California
Current Conditions -  °F | °C
As of 8:55 AM on Saturday 20 Dec 2014 (Local Time) from K9L2 Reporting Station
Clear Clear  
Wind Chill: 42°   Ceiling: Unl
Heat Index: 42°   Visibility: 8mi
Dew Point: 38°   Wind: 3mph
Humidity: 85%   Direction: 50°NE
Pressure: 30.18"   Gusts: NA
Location:  35.0434°N, 117.645°W
Report Text: K9L2 201655Z AUTO 05003KT 8SM CLR 06/03 A3018 RMK AO2 SLP231 T00560033 TSNO $
Loading
Personal Weather Stations






























Interactive Weather Map New forecast layout! Learn more

10-Day Weather Forecast

Advertisements
Track Severe Weather on mobile